sensor_id;sensor_type;location;lat;lon;timestamp;P1;durP1;ratioP1;P2;durP2;ratioP2
79490;SDS011;68950;53.098;18.032;2023-04-24T00:01:01;4.50;;;2.50;;
79490;SDS011;68950;53.098;18.032;2023-04-24T00:03:28;3.90;;;1.90;;
79490;SDS011;68950;53.098;18.032;2023-04-24T00:05:55;3.90;;;1.90;;
79490;SDS011;68950;53.098;18.032;2023-04-24T00:08:22;4.40;;;2.10;;
79490;SDS011;68950;53.098;18.032;2023-04-24T00:10:50;3.90;;;1.70;;
79490;SDS011;68950;53.098;18.032;2023-04-24T00:13:18;4.60;;;2.40;;
79490;SDS011;68950;53.098;18.032;2023-04-24T00:15:45;4.10;;;2.20;;
79490;SDS011;68950;53.098;18.032;2023-04-24T00:18:12;3.90;;;1.70;;
79490;SDS011;68950;53.098;18.032;2023-04-24T00:20:38;4.20;;;2.00;;
79490;SDS011;68950;53.098;18.032;2023-04-24T00:23:06;3.90;;;2.00;;
79490;SDS011;68950;53.098;18.032;2023-04-24T00:25:32;4.70;;;2.10;;
79490;SDS011;68950;53.098;18.032;2023-04-24T00:27:59;4.00;;;2.20;;
79490;SDS011;68950;53.098;18.032;2023-04-24T00:30:26;4.10;;;1.80;;
79490;SDS011;68950;53.098;18.032;2023-04-24T00:32:53;3.60;;;1.90;;
79490;SDS011;68950;53.098;18.032;2023-04-24T00:35:19;4.00;;;2.20;;
79490;SDS011;68950;53.098;18.032;2023-04-24T00:37:46;4.00;;;2.20;;
79490;SDS011;68950;53.098;18.032;2023-04-24T00:40:13;4.40;;;2.00;;
79490;SDS011;68950;53.098;18.032;2023-04-24T00:42:40;3.80;;;2.10;;
79490;SDS011;68950;53.098;18.032;2023-04-24T00:45:08;4.30;;;2.10;;
79490;SDS011;68950;53.098;18.032;2023-04-24T00:47:35;4.10;;;1.90;;
79490;SDS011;68950;53.098;18.032;2023-04-24T00:50:06;4.00;;;2.10;;
79490;SDS011;68950;53.098;18.032;2023-04-24T00:52:34;3.90;;;2.40;;
79490;SDS011;68950;53.098;18.032;2023-04-24T00:55:00;4.00;;;2.10;;
79490;SDS011;68950;53.098;18.032;2023-04-24T00:57:28;4.30;;;2.20;;
79490;SDS011;68950;53.098;18.032;2023-04-24T00:59:55;4.80;;;2.40;;
79490;SDS011;68950;53.098;18.032;2023-04-24T01:02:22;4.40;;;2.20;;
79490;SDS011;68950;53.098;18.032;2023-04-24T01:04:50;4.50;;;2.30;;
79490;SDS011;68950;53.098;18.032;2023-04-24T01:07:21;3.80;;;1.80;;
79490;SDS011;68950;53.098;18.032;2023-04-24T01:09:48;4.50;;;2.00;;
79490;SDS011;68950;53.098;18.032;2023-04-24T01:12:17;3.90;;;1.80;;
79490;SDS011;68950;53.098;18.032;2023-04-24T01:14:45;4.00;;;2.00;;
79490;SDS011;68950;53.098;18.032;2023-04-24T01:17:11;4.20;;;2.40;;
79490;SDS011;68950;53.098;18.032;2023-04-24T01:19:38;4.40;;;2.30;;
79490;SDS011;68950;53.098;18.032;2023-04-24T01:22:15;4.10;;;2.10;;
79490;SDS011;68950;53.098;18.032;2023-04-24T01:24:43;4.40;;;1.90;;
79490;SDS011;68950;53.098;18.032;2023-04-24T01:27:10;4.50;;;2.30;;
79490;SDS011;68950;53.098;18.032;2023-04-24T01:29:37;4.00;;;2.00;;
79490;SDS011;68950;53.098;18.032;2023-04-24T01:32:05;4.10;;;2.10;;
79490;SDS011;68950;53.098;18.032;2023-04-24T01:34:32;4.20;;;2.30;;
79490;SDS011;68950;53.098;18.032;2023-04-24T01:37:00;4.10;;;2.30;;
79490;SDS011;68950;53.098;18.032;2023-04-24T01:39:26;4.50;;;2.30;;
79490;SDS011;68950;53.098;18.032;2023-04-24T01:41:55;4.00;;;2.00;;
79490;SDS011;68950;53.098;18.032;2023-04-24T01:44:23;5.00;;;2.60;;
79490;SDS011;68950;53.098;18.032;2023-04-24T01:46:50;4.00;;;2.00;;
79490;SDS011;68950;53.098;18.032;2023-04-24T01:49:17;3.60;;;2.00;;
79490;SDS011;68950;53.098;18.032;2023-04-24T01:51:43;3.80;;;2.00;;
79490;SDS011;68950;53.098;18.032;2023-04-24T01:54:11;4.60;;;2.10;;
79490;SDS011;68950;53.098;18.032;2023-04-24T01:56:41;4.20;;;2.20;;
79490;SDS011;68950;53.098;18.032;2023-04-24T01:59:11;4.70;;;2.30;;
79490;SDS011;68950;53.098;18.032;2023-04-24T02:01:38;4.00;;;2.00;;
79490;SDS011;68950;53.098;18.032;2023-04-24T02:04:06;4.50;;;2.10;;
79490;SDS011;68950;53.098;18.032;2023-04-24T02:06:33;3.90;;;2.10;;
79490;SDS011;68950;53.098;18.032;2023-04-24T02:09:01;4.50;;;2.30;;
79490;SDS011;68950;53.098;18.032;2023-04-24T02:11:27;4.50;;;2.00;;
79490;SDS011;68950;53.098;18.032;2023-04-24T02:13:54;4.40;;;2.20;;
79490;SDS011;68950;53.098;18.032;2023-04-24T02:16:21;4.70;;;2.40;;
79490;SDS011;68950;53.098;18.032;2023-04-24T02:18:47;3.70;;;1.90;;
79490;SDS011;68950;53.098;18.032;2023-04-24T02:21:14;4.00;;;2.10;;
79490;SDS011;68950;53.098;18.032;2023-04-24T02:23:40;4.40;;;2.20;;
79490;SDS011;68950;53.098;18.032;2023-04-24T02:26:07;4.10;;;2.20;;
79490;SDS011;68950;53.098;18.032;2023-04-24T02:28:34;3.80;;;1.70;;
79490;SDS011;68950;53.098;18.032;2023-04-24T02:31:01;4.10;;;2.00;;
79490;SDS011;68950;53.098;18.032;2023-04-24T02:33:28;4.00;;;2.30;;
79490;SDS011;68950;53.098;18.032;2023-04-24T02:35:55;4.20;;;2.30;;
79490;SDS011;68950;53.098;18.032;2023-04-24T02:38:22;4.40;;;2.30;;
79490;SDS011;68950;53.098;18.032;2023-04-24T02:40:48;4.70;;;2.20;;
79490;SDS011;68950;53.098;18.032;2023-04-24T02:43:15;4.00;;;2.10;;
79490;SDS011;68950;53.098;18.032;2023-04-24T02:45:42;4.00;;;2.10;;
79490;SDS011;68950;53.098;18.032;2023-04-24T02:48:08;4.20;;;2.40;;
79490;SDS011;68950;53.098;18.032;2023-04-24T02:50:35;4.40;;;2.20;;
79490;SDS011;68950;53.098;18.032;2023-04-24T02:53:02;4.00;;;2.10;;
79490;SDS011;68950;53.098;18.032;2023-04-24T02:55:28;4.10;;;1.90;;
79490;SDS011;68950;53.098;18.032;2023-04-24T02:57:55;4.50;;;2.00;;
79490;SDS011;68950;53.098;18.032;2023-04-24T03:00:22;4.00;;;2.00;;
79490;SDS011;68950;53.098;18.032;2023-04-24T03:02:48;4.20;;;2.00;;
79490;SDS011;68950;53.098;18.032;2023-04-24T03:05:16;4.10;;;2.20;;
79490;SDS011;68950;53.098;18.032;2023-04-24T03:07:43;3.70;;;1.80;;
79490;SDS011;68950;53.098;18.032;2023-04-24T03:10:09;4.00;;;1.90;;
79490;SDS011;68950;53.098;18.032;2023-04-24T03:12:36;4.50;;;2.30;;
79490;SDS011;68950;53.098;18.032;2023-04-24T03:15:03;4.60;;;2.20;;
79490;SDS011;68950;53.098;18.032;2023-04-24T03:17:30;4.20;;;2.30;;
79490;SDS011;68950;53.098;18.032;2023-04-24T03:19:57;4.10;;;2.10;;
79490;SDS011;68950;53.098;18.032;2023-04-24T03:22:23;4.30;;;2.00;;
79490;SDS011;68950;53.098;18.032;2023-04-24T03:24:50;5.10;;;2.30;;
79490;SDS011;68950;53.098;18.032;2023-04-24T03:27:17;4.20;;;2.20;;
79490;SDS011;68950;53.098;18.032;2023-04-24T03:29:43;4.50;;;2.10;;
79490;SDS011;68950;53.098;18.032;2023-04-24T03:32:10;4.20;;;2.40;;
79490;SDS011;68950;53.098;18.032;2023-04-24T03:34:36;4.20;;;2.10;;
79490;SDS011;68950;53.098;18.032;2023-04-24T03:37:03;4.30;;;2.20;;
79490;SDS011;68950;53.098;18.032;2023-04-24T03:39:29;3.90;;;2.00;;
79490;SDS011;68950;53.098;18.032;2023-04-24T03:41:56;3.90;;;2.10;;
79490;SDS011;68950;53.098;18.032;2023-04-24T03:44:22;4.10;;;2.50;;
79490;SDS011;68950;53.098;18.032;2023-04-24T03:46:49;4.20;;;2.10;;
79490;SDS011;68950;53.098;18.032;2023-04-24T03:49:15;4.20;;;2.00;;
79490;SDS011;68950;53.098;18.032;2023-04-24T03:51:42;3.90;;;1.90;;
79490;SDS011;68950;53.098;18.032;2023-04-24T03:54:09;4.00;;;2.20;;
79490;SDS011;68950;53.098;18.032;2023-04-24T03:56:35;4.40;;;2.30;;
79490;SDS011;68950;53.098;18.032;2023-04-24T03:59:02;4.20;;;2.20;;
79490;SDS011;68950;53.098;18.032;2023-04-24T04:01:29;4.20;;;2.30;;
79490;SDS011;68950;53.098;18.032;2023-04-24T04:03:57;4.60;;;2.10;;
79490;SDS011;68950;53.098;18.032;2023-04-24T04:06:24;4.10;;;2.20;;
79490;SDS011;68950;53.098;18.032;2023-04-24T04:08:50;4.60;;;2.80;;
79490;SDS011;68950;53.098;18.032;2023-04-24T04:11:17;4.20;;;2.30;;
79490;SDS011;68950;53.098;18.032;2023-04-24T04:13:43;5.00;;;2.20;;
79490;SDS011;68950;53.098;18.032;2023-04-24T04:16:10;4.00;;;2.10;;
79490;SDS011;68950;53.098;18.032;2023-04-24T04:18:37;4.50;;;2.40;;
79490;SDS011;68950;53.098;18.032;2023-04-24T04:21:04;4.20;;;2.40;;
79490;SDS011;68950;53.098;18.032;2023-04-24T04:23:30;4.30;;;2.20;;
79490;SDS011;68950;53.098;18.032;2023-04-24T04:25:58;4.60;;;2.30;;
79490;SDS011;68950;53.098;18.032;2023-04-24T04:28:25;4.40;;;2.10;;
79490;SDS011;68950;53.098;18.032;2023-04-24T04:30:53;4.30;;;2.10;;
79490;SDS011;68950;53.098;18.032;2023-04-24T04:33:24;4.50;;;2.70;;
79490;SDS011;68950;53.098;18.032;2023-04-24T04:35:52;4.60;;;2.40;;
79490;SDS011;68950;53.098;18.032;2023-04-24T04:38:19;4.10;;;2.10;;
79490;SDS011;68950;53.098;18.032;2023-04-24T04:40:45;4.10;;;2.30;;
79490;SDS011;68950;53.098;18.032;2023-04-24T04:43:12;4.20;;;2.40;;
79490;SDS011;68950;53.098;18.032;2023-04-24T04:45:42;4.30;;;2.40;;
79490;SDS011;68950;53.098;18.032;2023-04-24T04:48:09;4.30;;;2.30;;
79490;SDS011;68950;53.098;18.032;2023-04-24T04:50:39;4.20;;;2.40;;
79490;SDS011;68950;53.098;18.032;2023-04-24T04:53:05;4.50;;;2.40;;
79490;SDS011;68950;53.098;18.032;2023-04-24T04:55:32;4.10;;;2.30;;
79490;SDS011;68950;53.098;18.032;2023-04-24T04:57:59;4.40;;;2.30;;
79490;SDS011;68950;53.098;18.032;2023-04-24T05:00:26;4.00;;;2.00;;
79490;SDS011;68950;53.098;18.032;2023-04-24T05:02:55;4.20;;;2.20;;
79490;SDS011;68950;53.098;18.032;2023-04-24T05:05:21;4.30;;;2.30;;
79490;SDS011;68950;53.098;18.032;2023-04-24T05:07:48;4.10;;;2.20;;
79490;SDS011;68950;53.098;18.032;2023-04-24T05:10:15;4.10;;;2.20;;
79490;SDS011;68950;53.098;18.032;2023-04-24T05:12:42;4.30;;;2.20;;
79490;SDS011;68950;53.098;18.032;2023-04-24T05:15:09;4.10;;;2.20;;
79490;SDS011;68950;53.098;18.032;2023-04-24T05:17:36;4.20;;;2.10;;
79490;SDS011;68950;53.098;18.032;2023-04-24T05:20:04;4.30;;;2.30;;
79490;SDS011;68950;53.098;18.032;2023-04-24T05:22:31;4.20;;;2.20;;
79490;SDS011;68950;53.098;18.032;2023-04-24T05:24:58;3.90;;;2.30;;
79490;SDS011;68950;53.098;18.032;2023-04-24T05:27:25;4.30;;;2.30;;
79490;SDS011;68950;53.098;18.032;2023-04-24T05:29:52;4.20;;;2.40;;
79490;SDS011;68950;53.098;18.032;2023-04-24T05:32:18;4.10;;;2.30;;
79490;SDS011;68950;53.098;18.032;2023-04-24T05:34:45;4.50;;;2.30;;
79490;SDS011;68950;53.098;18.032;2023-04-24T05:37:11;3.80;;;2.00;;
79490;SDS011;68950;53.098;18.032;2023-04-24T05:39:38;4.20;;;2.20;;
79490;SDS011;68950;53.098;18.032;2023-04-24T05:42:04;4.70;;;2.50;;
79490;SDS011;68950;53.098;18.032;2023-04-24T05:44:31;4.50;;;2.50;;
79490;SDS011;68950;53.098;18.032;2023-04-24T05:46:58;4.40;;;2.60;;
79490;SDS011;68950;53.098;18.032;2023-04-24T05:49:24;4.50;;;2.50;;
79490;SDS011;68950;53.098;18.032;2023-04-24T05:51:51;4.40;;;2.30;;
79490;SDS011;68950;53.098;18.032;2023-04-24T05:54:18;4.30;;;2.40;;
79490;SDS011;68950;53.098;18.032;2023-04-24T05:56:44;4.50;;;2.60;;
79490;SDS011;68950;53.098;18.032;2023-04-24T05:59:11;3.80;;;2.20;;
79490;SDS011;68950;53.098;18.032;2023-04-24T06:01:37;4.10;;;2.50;;
79490;SDS011;68950;53.098;18.032;2023-04-24T06:04:04;4.00;;;2.10;;
79490;SDS011;68950;53.098;18.032;2023-04-24T06:06:30;4.40;;;2.30;;
79490;SDS011;68950;53.098;18.032;2023-04-24T06:08:58;4.10;;;2.30;;
79490;SDS011;68950;53.098;18.032;2023-04-24T06:11:25;4.20;;;2.30;;
79490;SDS011;68950;53.098;18.032;2023-04-24T06:13:52;4.40;;;2.20;;
79490;SDS011;68950;53.098;18.032;2023-04-24T06:16:18;4.60;;;2.40;;
79490;SDS011;68950;53.098;18.032;2023-04-24T06:18:45;3.80;;;2.00;;
79490;SDS011;68950;53.098;18.032;2023-04-24T06:21:13;4.30;;;2.20;;
79490;SDS011;68950;53.098;18.032;2023-04-24T06:23:41;4.10;;;2.20;;
79490;SDS011;68950;53.098;18.032;2023-04-24T06:26:08;5.10;;;2.60;;
79490;SDS011;68950;53.098;18.032;2023-04-24T06:28:34;5.00;;;2.60;;
79490;SDS011;68950;53.098;18.032;2023-04-24T06:31:01;4.60;;;2.30;;
79490;SDS011;68950;53.098;18.032;2023-04-24T06:33:28;4.60;;;2.70;;
79490;SDS011;68950;53.098;18.032;2023-04-24T06:35:54;5.30;;;2.80;;
79490;SDS011;68950;53.098;18.032;2023-04-24T06:38:21;4.40;;;2.50;;
79490;SDS011;68950;53.098;18.032;2023-04-24T06:40:48;4.70;;;2.40;;
79490;SDS011;68950;53.098;18.032;2023-04-24T06:43:14;4.30;;;2.40;;
79490;SDS011;68950;53.098;18.032;2023-04-24T06:45:41;4.30;;;2.30;;
79490;SDS011;68950;53.098;18.032;2023-04-24T06:48:09;4.60;;;2.30;;
79490;SDS011;68950;53.098;18.032;2023-04-24T06:50:36;3.80;;;2.10;;
79490;SDS011;68950;53.098;18.032;2023-04-24T06:53:03;4.40;;;2.30;;
79490;SDS011;68950;53.098;18.032;2023-04-24T06:55:29;5.10;;;2.60;;
79490;SDS011;68950;53.098;18.032;2023-04-24T06:57:56;4.50;;;2.50;;
79490;SDS011;68950;53.098;18.032;2023-04-24T07:00:23;4.30;;;2.50;;
79490;SDS011;68950;53.098;18.032;2023-04-24T07:02:50;4.80;;;2.30;;
79490;SDS011;68950;53.098;18.032;2023-04-24T07:05:17;4.20;;;2.40;;
79490;SDS011;68950;53.098;18.032;2023-04-24T07:07:47;4.10;;;2.30;;
79490;SDS011;68950;53.098;18.032;2023-04-24T07:10:15;4.30;;;2.60;;
79490;SDS011;68950;53.098;18.032;2023-04-24T07:12:42;4.20;;;2.20;;
79490;SDS011;68950;53.098;18.032;2023-04-24T07:15:09;4.20;;;2.40;;
79490;SDS011;68950;53.098;18.032;2023-04-24T07:17:36;4.40;;;2.30;;
79490;SDS011;68950;53.098;18.032;2023-04-24T07:20:05;4.40;;;2.30;;
79490;SDS011;68950;53.098;18.032;2023-04-24T07:22:35;4.80;;;2.50;;
79490;SDS011;68950;53.098;18.032;2023-04-24T07:25:02;4.30;;;2.50;;
79490;SDS011;68950;53.098;18.032;2023-04-24T07:27:29;4.20;;;2.30;;
79490;SDS011;68950;53.098;18.032;2023-04-24T07:29:56;3.90;;;2.10;;
79490;SDS011;68950;53.098;18.032;2023-04-24T07:32:22;4.20;;;2.30;;
79490;SDS011;68950;53.098;18.032;2023-04-24T07:34:49;4.20;;;2.30;;
79490;SDS011;68950;53.098;18.032;2023-04-24T07:37:15;4.40;;;2.30;;
79490;SDS011;68950;53.098;18.032;2023-04-24T07:39:42;4.30;;;2.30;;
79490;SDS011;68950;53.098;18.032;2023-04-24T07:42:09;4.30;;;2.30;;
79490;SDS011;68950;53.098;18.032;2023-04-24T07:44:35;4.30;;;2.40;;
79490;SDS011;68950;53.098;18.032;2023-04-24T07:47:02;4.60;;;2.30;;
79490;SDS011;68950;53.098;18.032;2023-04-24T07:49:29;4.80;;;2.80;;
79490;SDS011;68950;53.098;18.032;2023-04-24T07:51:56;5.30;;;2.40;;
79490;SDS011;68950;53.098;18.032;2023-04-24T07:54:22;4.40;;;2.30;;
79490;SDS011;68950;53.098;18.032;2023-04-24T07:56:49;4.60;;;2.70;;
79490;SDS011;68950;53.098;18.032;2023-04-24T07:59:16;5.70;;;2.80;;
79490;SDS011;68950;53.098;18.032;2023-04-24T08:01:43;4.50;;;2.40;;
79490;SDS011;68950;53.098;18.032;2023-04-24T08:04:09;3.90;;;2.20;;
79490;SDS011;68950;53.098;18.032;2023-04-24T08:06:36;4.70;;;2.60;;
79490;SDS011;68950;53.098;18.032;2023-04-24T08:09:03;4.10;;;2.30;;
79490;SDS011;68950;53.098;18.032;2023-04-24T08:11:29;4.40;;;2.30;;
79490;SDS011;68950;53.098;18.032;2023-04-24T08:13:56;4.50;;;2.50;;
79490;SDS011;68950;53.098;18.032;2023-04-24T08:16:23;4.30;;;2.50;;
79490;SDS011;68950;53.098;18.032;2023-04-24T08:18:50;4.30;;;2.30;;
79490;SDS011;68950;53.098;18.032;2023-04-24T08:21:17;4.50;;;2.20;;
79490;SDS011;68950;53.098;18.032;2023-04-24T08:23:45;5.30;;;2.30;;
79490;SDS011;68950;53.098;18.032;2023-04-24T08:26:13;4.00;;;2.20;;
79490;SDS011;68950;53.098;18.032;2023-04-24T08:28:40;4.40;;;2.50;;
79490;SDS011;68950;53.098;18.032;2023-04-24T08:31:06;5.40;;;2.40;;
79490;SDS011;68950;53.098;18.032;2023-04-24T08:33:33;4.20;;;2.50;;
79490;SDS011;68950;53.098;18.032;2023-04-24T08:36:04;4.40;;;2.30;;
79490;SDS011;68950;53.098;18.032;2023-04-24T08:38:32;5.10;;;2.30;;
79490;SDS011;68950;53.098;18.032;2023-04-24T08:41:00;4.20;;;2.20;;
79490;SDS011;68950;53.098;18.032;2023-04-24T08:43:28;3.90;;;2.10;;
79490;SDS011;68950;53.098;18.032;2023-04-24T08:45:56;4.40;;;2.40;;
79490;SDS011;68950;53.098;18.032;2023-04-24T08:48:23;4.10;;;2.40;;
79490;SDS011;68950;53.098;18.032;2023-04-24T08:50:51;4.20;;;2.40;;
79490;SDS011;68950;53.098;18.032;2023-04-24T08:53:18;4.20;;;2.40;;
79490;SDS011;68950;53.098;18.032;2023-04-24T08:55:47;4.60;;;2.20;;
79490;SDS011;68950;53.098;18.032;2023-04-24T08:58:16;4.10;;;2.30;;
79490;SDS011;68950;53.098;18.032;2023-04-24T09:00:44;4.70;;;2.50;;
79490;SDS011;68950;53.098;18.032;2023-04-24T09:03:15;4.30;;;2.30;;
79490;SDS011;68950;53.098;18.032;2023-04-24T09:05:47;5.70;;;2.60;;
79490;SDS011;68950;53.098;18.032;2023-04-24T09:08:18;4.10;;;2.20;;
79490;SDS011;68950;53.098;18.032;2023-04-24T09:10:45;4.50;;;2.50;;
79490;SDS011;68950;53.098;18.032;2023-04-24T09:13:12;4.60;;;2.50;;
79490;SDS011;68950;53.098;18.032;2023-04-24T09:15:40;5.40;;;2.30;;
79490;SDS011;68950;53.098;18.032;2023-04-24T09:18:07;5.30;;;2.70;;
79490;SDS011;68950;53.098;18.032;2023-04-24T09:20:34;5.00;;;2.70;;
79490;SDS011;68950;53.098;18.032;2023-04-24T09:23:03;5.60;;;2.70;;
79490;SDS011;68950;53.098;18.032;2023-04-24T09:25:31;5.30;;;3.10;;
79490;SDS011;68950;53.098;18.032;2023-04-24T09:28:04;5.90;;;3.30;;
79490;SDS011;68950;53.098;18.032;2023-04-24T09:30:32;7.40;;;3.60;;
79490;SDS011;68950;53.098;18.032;2023-04-24T09:33:13;6.60;;;3.80;;
79490;SDS011;68950;53.098;18.032;2023-04-24T09:35:42;6.20;;;3.30;;
79490;SDS011;68950;53.098;18.032;2023-04-24T09:38:16;6.50;;;3.30;;
79490;SDS011;68950;53.098;18.032;2023-04-24T09:40:43;8.60;;;3.10;;
79490;SDS011;68950;53.098;18.032;2023-04-24T09:43:10;7.40;;;3.60;;
79490;SDS011;68950;53.098;18.032;2023-04-24T09:45:39;6.70;;;3.50;;
79490;SDS011;68950;53.098;18.032;2023-04-24T09:48:09;5.80;;;3.40;;
79490;SDS011;68950;53.098;18.032;2023-04-24T09:50:37;5.30;;;3.10;;
79490;SDS011;68950;53.098;18.032;2023-04-24T09:53:05;5.80;;;3.30;;
79490;SDS011;68950;53.098;18.032;2023-04-24T09:55:39;6.70;;;3.60;;
79490;SDS011;68950;53.098;18.032;2023-04-24T09:58:11;5.80;;;3.50;;
79490;SDS011;68950;53.098;18.032;2023-04-24T10:00:37;6.70;;;3.50;;
79490;SDS011;68950;53.098;18.032;2023-04-24T10:03:05;6.40;;;3.80;;
79490;SDS011;68950;53.098;18.032;2023-04-24T10:05:34;7.60;;;3.80;;
79490;SDS011;68950;53.098;18.032;2023-04-24T10:08:04;7.20;;;3.50;;
79490;SDS011;68950;53.098;18.032;2023-04-24T10:10:33;6.70;;;3.40;;
79490;SDS011;68950;53.098;18.032;2023-04-24T10:13:01;6.90;;;3.60;;
79490;SDS011;68950;53.098;18.032;2023-04-24T10:15:29;7.30;;;3.40;;
79490;SDS011;68950;53.098;18.032;2023-04-24T10:17:58;5.80;;;3.20;;
79490;SDS011;68950;53.098;18.032;2023-04-24T10:20:28;7.60;;;3.40;;
79490;SDS011;68950;53.098;18.032;2023-04-24T10:22:58;6.10;;;3.30;;
79490;SDS011;68950;53.098;18.032;2023-04-24T10:25:29;6.70;;;3.70;;
79490;SDS011;68950;53.098;18.032;2023-04-24T10:27:58;6.10;;;3.50;;
79490;SDS011;68950;53.098;18.032;2023-04-24T10:30:27;7.00;;;3.30;;
79490;SDS011;68950;53.098;18.032;2023-04-24T10:32:55;6.00;;;3.30;;
79490;SDS011;68950;53.098;18.032;2023-04-24T10:35:23;6.90;;;3.40;;
79490;SDS011;68950;53.098;18.032;2023-04-24T10:40:36;6.10;;;3.40;;
79490;SDS011;68950;53.098;18.032;2023-04-24T10:43:05;5.80;;;3.30;;
79490;SDS011;68950;53.098;18.032;2023-04-24T10:45:35;5.40;;;3.50;;
79490;SDS011;68950;53.098;18.032;2023-04-24T10:48:07;8.00;;;3.60;;
79490;SDS011;68950;53.098;18.032;2023-04-24T10:50:43;5.50;;;3.10;;
79490;SDS011;68950;53.098;18.032;2023-04-24T10:53:24;5.80;;;3.30;;
79490;SDS011;68950;53.098;18.032;2023-04-24T10:58:42;6.10;;;3.40;;
79490;SDS011;68950;53.098;18.032;2023-04-24T11:01:28;6.50;;;3.50;;
79490;SDS011;68950;53.098;18.032;2023-04-24T11:03:58;6.90;;;3.30;;
79490;SDS011;68950;53.098;18.032;2023-04-24T11:09:03;6.10;;;3.20;;
79490;SDS011;68950;53.098;18.032;2023-04-24T11:11:35;5.60;;;3.60;;
79490;SDS011;68950;53.098;18.032;2023-04-24T11:14:05;5.10;;;3.20;;
79490;SDS011;68950;53.098;18.032;2023-04-24T11:16:38;6.10;;;3.60;;
79490;SDS011;68950;53.098;18.032;2023-04-24T11:22:03;5.50;;;3.20;;
79490;SDS011;68950;53.098;18.032;2023-04-24T11:24:49;5.70;;;3.60;;
79490;SDS011;68950;53.098;18.032;2023-04-24T11:27:21;6.40;;;3.90;;
79490;SDS011;68950;53.098;18.032;2023-04-24T11:29:59;6.10;;;3.50;;
79490;SDS011;68950;53.098;18.032;2023-04-24T11:35:00;7.10;;;3.50;;
79490;SDS011;68950;53.098;18.032;2023-04-24T11:37:34;7.10;;;3.90;;
79490;SDS011;68950;53.098;18.032;2023-04-24T11:40:05;6.30;;;3.60;;
79490;SDS011;68950;53.098;18.032;2023-04-24T11:42:37;6.10;;;3.40;;
79490;SDS011;68950;53.098;18.032;2023-04-24T11:45:14;6.60;;;3.80;;
79490;SDS011;68950;53.098;18.032;2023-04-24T11:47:43;5.60;;;3.60;;
79490;SDS011;68950;53.098;18.032;2023-04-24T11:50:12;5.30;;;3.20;;
79490;SDS011;68950;53.098;18.032;2023-04-24T11:52:41;5.50;;;3.50;;
79490;SDS011;68950;53.098;18.032;2023-04-24T11:55:29;6.20;;;3.80;;
79490;SDS011;68950;53.098;18.032;2023-04-24T11:57:58;5.60;;;3.80;;
79490;SDS011;68950;53.098;18.032;2023-04-24T12:00:29;5.80;;;3.70;;
79490;SDS011;68950;53.098;18.032;2023-04-24T12:03:06;5.60;;;3.30;;
79490;SDS011;68950;53.098;18.032;2023-04-24T12:05:34;5.90;;;3.40;;
79490;SDS011;68950;53.098;18.032;2023-04-24T12:08:01;6.00;;;3.50;;
79490;SDS011;68950;53.098;18.032;2023-04-24T12:10:29;5.40;;;3.30;;
79490;SDS011;68950;53.098;18.032;2023-04-24T12:12:58;6.10;;;3.40;;
79490;SDS011;68950;53.098;18.032;2023-04-24T12:15:26;6.50;;;3.30;;
79490;SDS011;68950;53.098;18.032;2023-04-24T12:17:55;6.70;;;3.50;;
79490;SDS011;68950;53.098;18.032;2023-04-24T12:20:32;5.90;;;3.40;;
79490;SDS011;68950;53.098;18.032;2023-04-24T12:23:00;6.60;;;3.80;;
79490;SDS011;68950;53.098;18.032;2023-04-24T12:25:34;5.80;;;3.70;;
79490;SDS011;68950;53.098;18.032;2023-04-24T12:30:32;7.50;;;4.00;;
79490;SDS011;68950;53.098;18.032;2023-04-24T12:33:02;8.90;;;3.90;;
79490;SDS011;68950;53.098;18.032;2023-04-24T12:35:31;6.80;;;4.00;;
79490;SDS011;68950;53.098;18.032;2023-04-24T12:38:10;6.50;;;4.00;;
79490;SDS011;68950;53.098;18.032;2023-04-24T12:40:41;5.60;;;3.70;;
79490;SDS011;68950;53.098;18.032;2023-04-24T12:43:18;6.40;;;4.00;;
79490;SDS011;68950;53.098;18.032;2023-04-24T12:45:47;6.30;;;3.80;;
79490;SDS011;68950;53.098;18.032;2023-04-24T12:48:14;6.70;;;3.90;;
79490;SDS011;68950;53.098;18.032;2023-04-24T12:50:41;6.10;;;3.90;;
79490;SDS011;68950;53.098;18.032;2023-04-24T12:53:08;6.00;;;3.50;;
79490;SDS011;68950;53.098;18.032;2023-04-24T12:55:36;6.90;;;3.80;;
79490;SDS011;68950;53.098;18.032;2023-04-24T12:58:03;5.80;;;3.70;;
79490;SDS011;68950;53.098;18.032;2023-04-24T13:00:30;6.40;;;3.80;;
79490;SDS011;68950;53.098;18.032;2023-04-24T13:02:57;7.70;;;3.90;;
79490;SDS011;68950;53.098;18.032;2023-04-24T13:05:23;6.10;;;3.70;;
79490;SDS011;68950;53.098;18.032;2023-04-24T13:07:50;5.80;;;3.40;;
79490;SDS011;68950;53.098;18.032;2023-04-24T13:10:16;6.20;;;3.50;;
79490;SDS011;68950;53.098;18.032;2023-04-24T13:12:43;6.60;;;3.80;;
79490;SDS011;68950;53.098;18.032;2023-04-24T13:15:12;5.80;;;3.90;;
79490;SDS011;68950;53.098;18.032;2023-04-24T13:17:39;5.70;;;4.10;;
79490;SDS011;68950;53.098;18.032;2023-04-24T13:20:07;6.80;;;3.80;;
79490;SDS011;68950;53.098;18.032;2023-04-24T13:22:34;5.90;;;3.70;;
79490;SDS011;68950;53.098;18.032;2023-04-24T13:25:00;6.20;;;3.40;;
79490;SDS011;68950;53.098;18.032;2023-04-24T13:27:27;6.80;;;3.60;;
79490;SDS011;68950;53.098;18.032;2023-04-24T13:29:54;6.30;;;3.70;;
79490;SDS011;68950;53.098;18.032;2023-04-24T13:32:20;5.50;;;3.60;;
79490;SDS011;68950;53.098;18.032;2023-04-24T13:34:47;6.80;;;3.70;;
79490;SDS011;68950;53.098;18.032;2023-04-24T13:37:13;6.10;;;3.70;;
79490;SDS011;68950;53.098;18.032;2023-04-24T13:39:40;6.30;;;3.80;;
79490;SDS011;68950;53.098;18.032;2023-04-24T13:42:10;5.90;;;3.60;;
79490;SDS011;68950;53.098;18.032;2023-04-24T13:44:37;5.50;;;3.60;;
79490;SDS011;68950;53.098;18.032;2023-04-24T13:47:03;5.60;;;3.60;;
79490;SDS011;68950;53.098;18.032;2023-04-24T13:49:30;5.50;;;3.80;;
79490;SDS011;68950;53.098;18.032;2023-04-24T13:51:56;6.00;;;3.60;;
79490;SDS011;68950;53.098;18.032;2023-04-24T13:54:23;6.30;;;3.60;;
79490;SDS011;68950;53.098;18.032;2023-04-24T13:56:52;5.50;;;3.30;;
79490;SDS011;68950;53.098;18.032;2023-04-24T13:59:20;6.90;;;3.80;;
79490;SDS011;68950;53.098;18.032;2023-04-24T14:01:47;6.30;;;3.60;;
79490;SDS011;68950;53.098;18.032;2023-04-24T14:04:14;5.20;;;3.30;;
79490;SDS011;68950;53.098;18.032;2023-04-24T14:06:41;6.00;;;3.30;;
79490;SDS011;68950;53.098;18.032;2023-04-24T14:09:07;5.40;;;3.20;;
79490;SDS011;68950;53.098;18.032;2023-04-24T14:11:34;5.40;;;3.70;;
79490;SDS011;68950;53.098;18.032;2023-04-24T14:14:01;6.40;;;3.90;;
79490;SDS011;68950;53.098;18.032;2023-04-24T14:16:28;5.30;;;3.20;;
79490;SDS011;68950;53.098;18.032;2023-04-24T14:18:55;4.80;;;3.20;;
79490;SDS011;68950;53.098;18.032;2023-04-24T14:21:22;6.40;;;3.90;;
79490;SDS011;68950;53.098;18.032;2023-04-24T14:23:49;5.90;;;3.80;;
79490;SDS011;68950;53.098;18.032;2023-04-24T14:26:15;5.20;;;3.30;;
79490;SDS011;68950;53.098;18.032;2023-04-24T14:28:42;5.10;;;3.20;;
79490;SDS011;68950;53.098;18.032;2023-04-24T14:31:09;6.00;;;3.50;;
79490;SDS011;68950;53.098;18.032;2023-04-24T14:33:35;5.80;;;3.20;;
79490;SDS011;68950;53.098;18.032;2023-04-24T14:36:02;5.40;;;3.50;;
79490;SDS011;68950;53.098;18.032;2023-04-24T14:38:30;6.50;;;3.20;;
79490;SDS011;68950;53.098;18.032;2023-04-24T14:40:57;5.20;;;3.40;;
79490;SDS011;68950;53.098;18.032;2023-04-24T14:43:24;5.20;;;3.10;;
79490;SDS011;68950;53.098;18.032;2023-04-24T14:45:51;5.60;;;3.50;;
79490;SDS011;68950;53.098;18.032;2023-04-24T14:48:17;5.40;;;3.10;;
79490;SDS011;68950;53.098;18.032;2023-04-24T14:50:44;5.60;;;3.40;;
79490;SDS011;68950;53.098;18.032;2023-04-24T14:53:11;5.50;;;3.30;;